createdAt,value
2023-02-06T00:01:12.173Z,7.80
2023-02-06T00:03:40.063Z,7.90
2023-02-06T00:06:09.356Z,8.80
2023-02-06T00:08:36.263Z,9.30
2023-02-06T00:11:07.494Z,9.10
2023-02-06T00:13:42.827Z,8.10
2023-02-06T00:16:32.464Z,6.20
2023-02-06T00:19:01.836Z,8.80
2023-02-06T00:21:29.138Z,7.90
2023-02-06T00:23:57.635Z,9.50
2023-02-06T00:26:24.751Z,8.20
2023-02-06T00:28:51.711Z,8.10
2023-02-06T00:31:18.883Z,7.70
2023-02-06T00:33:45.710Z,8.70
2023-02-06T00:36:12.448Z,10.50
2023-02-06T00:38:39.479Z,9.90
2023-02-06T00:41:06.487Z,6.80
2023-02-06T00:43:33.214Z,8.40
2023-02-06T00:45:59.971Z,9.30
2023-02-06T00:48:26.980Z,8.10
2023-02-06T00:50:54.130Z,8.70
2023-02-06T00:53:21.376Z,7.40
2023-02-06T00:55:48.018Z,7.70
2023-02-06T00:58:14.883Z,8.50
2023-02-06T01:00:43.593Z,8.80
2023-02-06T01:03:10.574Z,7.70
2023-02-06T01:05:38.324Z,9.30
2023-02-06T01:08:05.534Z,7.20
2023-02-06T01:10:32.634Z,7.40
2023-02-06T01:12:59.852Z,9.70
2023-02-06T01:15:26.658Z,7.80
2023-02-06T01:17:53.477Z,7.90
2023-02-06T01:20:21.528Z,9.30
2023-02-06T01:22:48.356Z,8.70
2023-02-06T01:25:15.124Z,8.90
2023-02-06T01:27:41.809Z,8.50
2023-02-06T01:30:09.682Z,6.50
2023-02-06T01:32:38.138Z,6.80
2023-02-06T01:35:05.900Z,8.10
2023-02-06T01:37:34.175Z,7.70
2023-02-06T01:40:00.936Z,6.60
2023-02-06T01:42:27.689Z,8.00
2023-02-06T01:45:25.652Z,8.20
2023-02-06T01:47:56.955Z,7.50
2023-02-06T01:50:23.753Z,5.70
2023-02-06T01:52:51.179Z,8.80
2023-02-06T01:55:18.689Z,6.90
2023-02-06T01:57:45.343Z,7.70
2023-02-06T02:00:12.495Z,6.70
2023-02-06T02:02:43.057Z,9.30
2023-02-06T02:05:09.731Z,8.40
2023-02-06T02:07:38.406Z,8.60
2023-02-06T02:10:08.296Z,7.30
2023-02-06T02:12:35.292Z,6.80
2023-02-06T02:15:02.240Z,9.90
2023-02-06T02:17:47.400Z,5.80
2023-02-06T02:20:55.019Z,8.80
2023-02-06T02:23:42.285Z,8.70
2023-02-06T02:26:51.143Z,7.60
2023-02-06T02:29:49.612Z,8.50
2023-02-06T02:32:36.964Z,6.40
2023-02-06T02:35:18.996Z,7.30
2023-02-06T02:38:20.644Z,7.20
2023-02-06T02:41:08.744Z,6.60
2023-02-06T02:43:43.787Z,8.20
2023-02-06T02:46:22.619Z,8.00
2023-02-06T02:48:50.972Z,5.50
2023-02-06T02:51:17.896Z,8.10
2023-02-06T02:53:44.775Z,6.00
2023-02-06T02:56:22.021Z,7.80
2023-02-06T02:59:10.092Z,8.20
2023-02-06T03:02:08.127Z,6.80
2023-02-06T03:04:39.808Z,6.30
2023-02-06T03:07:12.982Z,7.40
2023-02-06T03:09:46.222Z,5.80
2023-02-06T03:12:47.790Z,7.70
2023-02-06T03:15:30.271Z,8.00
2023-02-06T03:18:05.749Z,6.20
2023-02-06T03:20:32.533Z,4.70
2023-02-06T03:22:59.659Z,6.70
2023-02-06T03:25:34.148Z,8.00
2023-02-06T03:28:01.334Z,6.40
2023-02-06T03:30:28.594Z,5.90
2023-02-06T03:33:01.728Z,7.90
2023-02-06T03:35:32.836Z,9.90
2023-02-06T03:38:00.009Z,7.90
2023-02-06T03:40:34.278Z,9.80
2023-02-06T03:43:02.421Z,6.00
2023-02-06T03:45:40.956Z,6.20
2023-02-06T03:48:10.394Z,6.20
2023-02-06T03:50:37.119Z,7.10
2023-02-06T03:53:04.031Z,8.10
2023-02-06T03:55:31.038Z,6.50
2023-02-06T03:58:03.442Z,7.60
2023-02-06T04:00:31.061Z,6.60
2023-02-06T04:02:58.160Z,5.60
2023-02-06T04:05:25.341Z,6.60
2023-02-06T04:07:53.966Z,6.00
2023-02-06T04:10:21.190Z,5.20
2023-02-06T04:12:48.002Z,6.70
2023-02-06T04:15:15.555Z,6.70
2023-02-06T04:17:57.717Z,6.90
2023-02-06T04:20:26.267Z,6.10
2023-02-06T04:22:53.064Z,5.50
2023-02-06T04:25:19.857Z,5.20
2023-02-06T04:27:46.767Z,7.00
2023-02-06T04:30:13.916Z,6.70
2023-02-06T04:32:41.779Z,6.80
2023-02-06T04:35:08.665Z,6.00
2023-02-06T04:37:37.663Z,6.10
2023-02-06T04:40:05.063Z,7.00
2023-02-06T04:42:32.149Z,6.20
2023-02-06T04:44:58.958Z,3.70
2023-02-06T04:47:25.620Z,5.50
2023-02-06T04:49:52.968Z,6.10
2023-02-06T04:52:20.011Z,5.80
2023-02-06T04:54:46.805Z,5.30
2023-02-06T04:57:13.594Z,4.70
2023-02-06T04:59:41.001Z,6.40
2023-02-06T05:02:07.935Z,7.30
2023-02-06T06:17:58.967Z,6.70
2023-02-06T06:20:25.875Z,7.60
2023-02-06T06:22:53.053Z,7.80
2023-02-06T06:25:19.920Z,24.00
2023-02-06T06:27:46.764Z,10.80
2023-02-06T06:30:13.793Z,23.20
2023-02-06T06:32:41.882Z,18.10
2023-02-06T06:35:09.105Z,8.20
2023-02-06T06:37:36.585Z,39.40
2023-02-06T06:40:03.902Z,12.60
2023-02-06T06:42:30.963Z,7.70
2023-02-06T06:44:58.742Z,6.60
2023-02-06T06:47:25.597Z,8.80
2023-02-06T06:49:52.865Z,6.00
2023-02-06T06:52:24.975Z,6.60
2023-02-06T06:54:53.215Z,5.40
2023-02-06T06:57:21.130Z,6.50
2023-02-06T06:59:47.917Z,16.90
2023-02-06T07:02:14.785Z,9.90
2023-02-06T07:04:42.059Z,7.30
2023-02-06T07:07:09.454Z,19.80
2023-02-06T07:09:37.396Z,30.90
2023-02-06T07:12:07.041Z,93.50
2023-02-06T07:14:35.085Z,67.70
2023-02-06T07:17:01.910Z,44.40
2023-02-06T07:19:28.710Z,27.90
2023-02-06T07:21:55.752Z,10.30
2023-02-06T07:24:23.427Z,10.00
2023-02-06T07:26:50.204Z,9.60
2023-02-06T07:29:17.228Z,18.10
2023-02-06T07:31:43.999Z,11.90
2023-02-06T07:34:10.724Z,20.30
2023-02-06T07:36:38.020Z,16.20
2023-02-06T07:39:05.173Z,43.20
2023-02-06T07:41:32.387Z,44.40
2023-02-06T07:43:59.386Z,42.30
2023-02-06T07:46:26.626Z,8.50
2023-02-06T07:48:53.430Z,9.00
2023-02-06T07:51:20.206Z,31.70
2023-02-06T07:53:47.892Z,32.70
2023-02-06T07:56:16.286Z,27.40
2023-02-06T07:58:43.124Z,25.00
2023-02-06T08:01:10.215Z,11.00
2023-02-06T08:03:37.499Z,6.90
2023-02-06T08:06:14.940Z,17.40
2023-02-06T08:08:42.405Z,15.00
2023-02-06T08:11:12.650Z,25.60
2023-02-06T08:16:07.521Z,10.20
2023-02-06T08:18:35.079Z,5.10
2023-02-06T08:21:03.206Z,6.50
2023-02-06T08:23:30.167Z,6.90
2023-02-06T08:26:05.868Z,8.10
2023-02-06T08:28:35.125Z,8.20
2023-02-06T08:31:15.738Z,11.10
2023-02-06T08:33:42.685Z,17.70
2023-02-06T08:36:09.686Z,51.10
2023-02-06T08:38:36.688Z,61.90
2023-02-06T08:41:05.337Z,43.30
2023-02-06T08:43:33.231Z,32.70
2023-02-06T08:46:00.077Z,19.90
2023-02-06T08:48:27.598Z,18.90
2023-02-06T08:51:04.432Z,11.20
2023-02-06T08:53:31.713Z,18.10
2023-02-06T08:56:09.664Z,20.20
2023-02-06T08:58:36.894Z,22.10
2023-02-06T09:01:11.019Z,39.50
2023-02-06T09:03:37.896Z,26.90
2023-02-06T09:06:09.926Z,48.10
2023-02-06T09:08:38.532Z,54.30
2023-02-06T09:11:11.118Z,41.90
2023-02-06T09:13:38.399Z,14.60
2023-02-06T09:16:05.848Z,37.40
2023-02-06T09:18:32.837Z,42.10
2023-02-06T09:25:39.159Z,10.20
2023-02-06T09:28:06.243Z,29.30
2023-02-06T09:30:33.460Z,43.20
2023-02-06T09:33:02.033Z,53.60
2023-02-06T09:35:29.646Z,24.70
2023-02-06T09:37:56.685Z,7.40
2023-02-06T09:40:26.905Z,5.70
2023-02-06T09:42:56.524Z,12.00
2023-02-06T09:45:25.793Z,14.40
2023-02-06T12:00:33.494Z,19.50
2023-02-06T12:03:00.596Z,37.90
2023-02-06T12:05:30.820Z,25.00
2023-02-06T12:08:02.474Z,44.40
2023-02-06T12:10:33.056Z,18.30
2023-02-06T12:13:03.149Z,18.50
2023-02-06T12:15:46.610Z,9.30
2023-02-06T12:18:25.861Z,15.00
2023-02-06T12:21:06.680Z,6.50
2023-02-06T12:23:53.503Z,7.30
2023-02-06T12:26:22.524Z,5.10
2023-02-06T12:28:55.919Z,5.30
2023-02-06T12:31:29.719Z,5.60
2023-02-06T12:34:01.595Z,17.50
2023-02-06T12:36:35.434Z,8.30
2023-02-06T12:39:11.922Z,8.70
2023-02-06T12:42:04.071Z,9.40
2023-02-06T12:44:38.935Z,4.20
2023-02-06T12:47:12.101Z,3.60
2023-02-06T12:50:00.965Z,3.90
2023-02-06T12:52:50.404Z,3.40
2023-02-06T12:58:03.541Z,6.30
2023-02-06T13:00:51.330Z,4.40
2023-02-06T13:03:26.756Z,11.40
2023-02-06T13:06:03.765Z,5.10
2023-02-06T13:08:46.632Z,9.80
2023-02-06T13:11:42.857Z,5.60
2023-02-06T13:14:23.389Z,77.70
2023-02-06T13:16:59.811Z,45.10
2023-02-06T13:19:37.017Z,6.80
2023-02-06T13:22:09.485Z,7.30
2023-02-06T13:24:41.191Z,16.10
2023-02-06T13:27:07.892Z,26.00
2023-02-06T13:29:49.039Z,31.80
2023-02-06T13:36:49.438Z,11.00
2023-02-06T13:39:28.250Z,6.10
2023-02-06T13:41:55.333Z,7.20
2023-02-06T13:44:26.694Z,8.70
2023-02-06T13:47:25.605Z,13.80
2023-02-06T13:50:20.154Z,5.40
2023-02-06T13:52:56.000Z,5.90
2023-02-06T13:56:01.655Z,5.00
2023-02-06T13:58:44.558Z,3.40
2023-02-06T14:03:39.434Z,4.20
2023-02-06T14:06:37.679Z,38.50
2023-02-06T14:09:46.462Z,20.10
2023-02-06T14:12:39.274Z,6.70
2023-02-06T14:15:21.574Z,5.90
2023-02-06T14:18:03.419Z,4.90
2023-02-06T14:20:48.850Z,4.10
2023-02-06T14:23:34.533Z,3.70
2023-02-06T14:26:16.515Z,19.70
2023-02-06T14:28:55.860Z,10.10
2023-02-06T14:31:59.782Z,13.20
2023-02-06T14:34:36.112Z,8.20
2023-02-06T14:37:12.661Z,6.40
2023-02-06T14:39:49.902Z,4.90
2023-02-06T14:42:36.790Z,5.50
2023-02-06T14:45:23.149Z,4.70
2023-02-06T14:47:50.676Z,5.50
2023-02-06T14:50:29.474Z,7.50
2023-02-06T14:53:19.564Z,5.50
2023-02-06T14:55:49.545Z,6.30
2023-02-06T14:58:27.965Z,3.90
2023-02-06T15:00:56.070Z,5.20
2023-02-06T15:03:27.525Z,4.80
2023-02-06T15:06:01.022Z,3.20
2023-02-06T15:08:28.320Z,5.40
2023-02-06T15:11:01.770Z,5.30
2023-02-06T15:13:35.089Z,5.30
2023-02-06T15:16:04.421Z,3.80
2023-02-06T15:18:31.424Z,6.60
2023-02-06T15:21:14.037Z,4.10
2023-02-06T15:24:05.844Z,10.70
2023-02-06T15:26:35.853Z,15.60
2023-02-06T15:29:04.410Z,12.30
2023-02-06T15:31:32.690Z,12.70
2023-02-06T15:34:00.959Z,22.20
2023-02-06T15:36:32.166Z,12.40
2023-02-06T15:39:00.280Z,38.60
2023-02-06T15:41:28.069Z,22.40
2023-02-06T15:43:59.725Z,13.50
2023-02-06T15:46:26.653Z,21.60
2023-02-06T15:48:54.179Z,15.10
2023-02-06T15:51:28.962Z,10.60
2023-02-06T15:54:22.840Z,11.50
2023-02-06T15:57:06.246Z,44.50
2023-02-06T16:02:03.879Z,33.60
2023-02-06T16:04:38.769Z,36.80
2023-02-06T16:07:22.042Z,25.30
2023-02-06T16:10:04.718Z,18.70
2023-02-06T16:12:34.614Z,8.30
2023-02-06T16:15:03.564Z,7.10
2023-02-06T16:17:36.815Z,5.80
2023-02-06T16:20:07.855Z,20.10
2023-02-06T16:22:37.937Z,9.90
2023-02-06T16:27:53.113Z,5.30
2023-02-06T16:30:34.217Z,5.80
2023-02-06T16:33:10.161Z,6.80
2023-02-06T16:35:37.640Z,7.10
2023-02-06T16:38:04.592Z,5.90
2023-02-06T16:40:32.270Z,5.00
2023-02-06T16:42:59.483Z,5.20
2023-02-06T16:45:26.971Z,4.50
2023-02-06T16:47:54.579Z,5.30
2023-02-06T16:50:21.818Z,4.60
2023-02-06T16:52:53.060Z,12.50
2023-02-06T16:55:25.309Z,6.40
2023-02-06T16:57:53.705Z,6.70
2023-02-06T17:00:25.738Z,7.10
2023-02-06T17:09:02.086Z,5.60
2023-02-06T17:11:30.745Z,6.00
2023-02-06T17:13:57.836Z,7.60
2023-02-06T17:16:28.163Z,5.60
2023-02-06T17:18:55.513Z,7.10
2023-02-06T17:21:23.899Z,7.30
2023-02-06T17:23:51.304Z,9.30
2023-02-06T17:26:22.484Z,7.20
2023-02-06T17:28:49.656Z,7.40
2023-02-06T17:31:18.614Z,5.80
2023-02-06T17:33:46.086Z,4.80
2023-02-06T17:36:16.206Z,8.50
2023-02-06T17:41:10.918Z,4.80
2023-02-06T17:43:38.437Z,6.20
2023-02-06T17:46:06.605Z,5.90
2023-02-06T17:48:36.731Z,3.70
2023-02-06T17:51:05.251Z,5.40
2023-02-06T17:53:32.906Z,4.20
2023-02-06T17:56:07.204Z,4.60
2023-02-06T17:58:35.116Z,5.50
2023-02-06T18:01:02.033Z,4.80
2023-02-06T18:03:29.810Z,5.00
2023-02-06T18:06:00.944Z,6.40
2023-02-06T18:08:29.219Z,6.60
2023-02-06T18:13:26.137Z,3.90
2023-02-06T18:15:55.264Z,4.70
2023-02-06T18:18:24.468Z,5.50
2023-02-06T18:20:52.841Z,5.70
2023-02-06T18:23:20.022Z,5.30
2023-02-06T18:25:48.103Z,5.50
2023-02-06T18:28:17.223Z,5.80
2023-02-06T18:30:48.828Z,5.30
2023-02-06T18:33:16.497Z,5.60
2023-02-06T18:35:46.517Z,5.40
2023-02-06T18:38:14.577Z,7.20
2023-02-06T18:40:43.139Z,6.00
2023-02-06T18:43:11.001Z,5.80
2023-02-06T18:45:38.703Z,6.60
2023-02-06T18:48:09.049Z,6.30
2023-02-06T18:50:38.336Z,6.30
2023-02-06T18:53:06.147Z,7.00
2023-02-06T18:55:35.130Z,5.90
2023-02-06T18:58:03.006Z,8.10
2023-02-06T19:00:30.696Z,7.40
2023-02-06T19:02:58.535Z,7.40
2023-02-06T19:05:26.195Z,10.80
2023-02-06T19:07:54.265Z,8.90
2023-02-06T19:10:21.502Z,10.30
2023-02-06T19:12:49.342Z,9.30
2023-02-06T19:15:16.838Z,11.50
2023-02-06T19:17:44.072Z,7.20
2023-02-06T19:20:12.434Z,7.90
2023-02-06T19:30:18.329Z,7.40
2023-02-06T19:32:46.202Z,7.10
2023-02-06T19:35:15.564Z,9.60
2023-02-06T19:37:45.484Z,10.60
2023-02-06T19:40:13.128Z,8.70
2023-02-06T19:42:41.155Z,7.20
2023-02-06T19:53:15.553Z,9.00
2023-02-06T19:55:47.203Z,7.40
2023-02-06T19:58:14.861Z,9.00
2023-02-06T20:00:41.453Z,8.60
2023-02-06T20:03:09.910Z,7.50
2023-02-06T20:05:36.819Z,9.20
2023-02-06T20:08:07.348Z,7.80
2023-02-06T20:10:37.602Z,8.00
2023-02-06T20:13:09.834Z,7.60
2023-02-06T20:15:38.533Z,7.30
2023-02-06T20:18:05.262Z,6.80
2023-02-06T20:20:35.789Z,7.20
2023-02-06T20:23:02.733Z,7.40
2023-02-06T20:25:30.088Z,8.00
2023-02-06T20:27:56.866Z,7.60
2023-02-06T20:30:23.665Z,8.80
2023-02-06T20:32:50.099Z,6.90
2023-02-06T20:35:16.712Z,7.60
2023-02-06T20:37:43.306Z,8.30
2023-02-06T20:40:10.093Z,7.40
2023-02-06T20:42:41.869Z,8.30
2023-02-06T20:45:08.190Z,6.40
2023-02-06T20:47:34.561Z,7.00
2023-02-06T20:50:01.981Z,6.80
2023-02-06T20:52:29.456Z,8.40
2023-02-06T20:54:56.328Z,7.50
2023-02-06T20:57:22.953Z,6.60
2023-02-06T20:59:49.652Z,7.00
2023-02-06T21:02:16.251Z,5.20
2023-02-06T21:04:42.980Z,11.10
2023-02-06T21:07:09.562Z,7.50
2023-02-06T21:09:36.116Z,8.10
2023-02-06T21:19:46.584Z,9.20
2023-02-06T21:22:13.606Z,5.60
2023-02-06T21:24:40.906Z,6.10
2023-02-06T21:27:08.245Z,8.40
2023-02-06T21:29:35.523Z,7.90
2023-02-06T21:32:13.381Z,6.80
2023-02-06T21:34:41.505Z,7.10
2023-02-06T21:37:08.647Z,8.70
2023-02-06T21:39:39.061Z,5.60
2023-02-06T21:44:38.529Z,6.30
2023-02-06T21:47:06.872Z,6.60
2023-02-06T21:49:34.308Z,8.30
2023-02-06T21:52:01.358Z,9.90
2023-02-06T21:54:29.654Z,7.20
2023-02-06T21:56:57.659Z,9.50
2023-02-06T21:59:24.718Z,6.90
2023-02-06T22:01:52.356Z,8.00
2023-02-06T22:04:19.340Z,7.00
2023-02-06T22:06:48.130Z,7.30
2023-02-06T22:09:16.514Z,10.00
2023-02-06T22:11:43.941Z,7.50
2023-02-06T22:14:16.253Z,6.90
2023-02-06T22:16:43.347Z,7.10
2023-02-06T22:19:11.363Z,7.70
2023-02-06T22:21:38.716Z,9.20
2023-02-06T22:24:06.940Z,7.70
2023-02-06T22:26:37.022Z,8.50
2023-02-06T22:29:05.948Z,11.90
2023-02-06T22:31:34.114Z,6.80
2023-02-06T22:34:02.034Z,8.20
2023-02-06T22:36:30.790Z,10.50
2023-02-06T22:38:59.860Z,8.40
2023-02-06T22:41:26.977Z,9.70
2023-02-06T22:43:54.393Z,8.50
2023-02-06T22:46:41.823Z,7.90
2023-02-06T22:49:09.302Z,6.40
2023-02-06T22:51:37.667Z,8.90
2023-02-06T22:54:04.818Z,7.40
2023-02-06T22:56:36.095Z,9.30
2023-02-06T22:59:12.440Z,10.70
2023-02-06T23:01:44.826Z,8.50
2023-02-06T23:04:17.592Z,7.90
2023-02-06T23:06:47.807Z,6.30
2023-02-06T23:09:17.123Z,7.10
2023-02-06T23:11:44.714Z,7.20
2023-02-06T23:14:12.526Z,8.20
2023-02-06T23:16:40.656Z,7.60
2023-02-06T23:19:07.982Z,6.90
2023-02-06T23:21:36.714Z,7.20
2023-02-06T23:24:08.088Z,7.70
2023-02-06T23:26:35.543Z,7.20
2023-02-06T23:29:05.400Z,6.50
2023-02-06T23:31:32.564Z,4.20
2023-02-06T23:33:59.856Z,6.00
2023-02-06T23:36:27.425Z,6.30
2023-02-06T23:38:54.408Z,5.80
2023-02-06T23:41:23.735Z,7.60
2023-02-06T23:44:03.279Z,7.50
2023-02-06T23:46:31.258Z,10.00
2023-02-06T23:48:58.620Z,7.00
2023-02-06T23:51:25.966Z,8.50
2023-02-06T23:53:53.044Z,6.50
2023-02-06T23:56:23.095Z,8.30
2023-02-06T23:58:50.102Z,6.40
